sensor_id;sensor_type;location;lat;lon;timestamp;pressure;altitude;pressure_sealevel;temperature;humidity
84032;BME280;74113;46.556;24.570;2024-01-07T00:00:16;96777.58;;;6.57;65.20
84032;BME280;74113;46.556;24.570;2024-01-07T00:03:05;96781.67;;;6.55;65.39
84032;BME280;74113;46.556;24.570;2024-01-07T00:05:36;96778.63;;;6.53;65.28
84032;BME280;74113;46.556;24.570;2024-01-07T00:08:05;96775.80;;;6.51;65.32
84032;BME280;74113;46.556;24.570;2024-01-07T00:10:34;96777.73;;;6.50;65.23
84032;BME280;74113;46.556;24.570;2024-01-07T00:13:02;96779.73;;;6.48;65.34
84032;BME280;74113;46.556;24.570;2024-01-07T00:15:31;96773.48;;;6.45;65.21
84032;BME280;74113;46.556;24.570;2024-01-07T00:18:00;96773.08;;;6.43;65.30
84032;BME280;74113;46.556;24.570;2024-01-07T00:20:28;96773.73;;;6.40;65.80
84032;BME280;74113;46.556;24.570;2024-01-07T00:22:57;96774.16;;;6.38;65.79
84032;BME280;74113;46.556;24.570;2024-01-07T00:25:26;96778.06;;;6.39;66.02
84032;BME280;74113;46.556;24.570;2024-01-07T00:27:54;96776.10;;;6.41;66.23
84032;BME280;74113;46.556;24.570;2024-01-07T00:30:23;96776.95;;;6.41;66.17
84032;BME280;74113;46.556;24.570;2024-01-07T00:32:52;96778.06;;;6.43;65.86
84032;BME280;74113;46.556;24.570;2024-01-07T00:35:20;96779.63;;;6.43;65.76
84032;BME280;74113;46.556;24.570;2024-01-07T00:37:49;96781.27;;;6.41;65.68
84032;BME280;74113;46.556;24.570;2024-01-07T00:40:17;96773.80;;;6.35;65.81
84032;BME280;74113;46.556;24.570;2024-01-07T00:42:46;96776.73;;;6.31;65.83
84032;BME280;74113;46.556;24.570;2024-01-07T00:45:14;96775.55;;;6.26;66.13
84032;BME280;74113;46.556;24.570;2024-01-07T00:47:43;96772.39;;;6.24;65.73
84032;BME280;74113;46.556;24.570;2024-01-07T00:50:11;96770.31;;;6.24;66.12
84032;BME280;74113;46.556;24.570;2024-01-07T00:52:40;96771.04;;;6.23;66.16
84032;BME280;74113;46.556;24.570;2024-01-07T00:55:10;96775.81;;;6.20;66.21
84032;BME280;74113;46.556;24.570;2024-01-07T00:57:39;96771.52;;;6.20;66.20
84032;BME280;74113;46.556;24.570;2024-01-07T01:00:08;96767.39;;;6.20;66.22
84032;BME280;74113;46.556;24.570;2024-01-07T01:02:37;96768.19;;;6.18;66.29
84032;BME280;74113;46.556;24.570;2024-01-07T01:05:05;96760.23;;;6.19;66.53
84032;BME280;74113;46.556;24.570;2024-01-07T01:07:34;96754.86;;;6.19;66.81
84032;BME280;74113;46.556;24.570;2024-01-07T01:10:03;96757.39;;;6.20;66.85
84032;BME280;74113;46.556;24.570;2024-01-07T01:12:32;96757.05;;;6.20;66.65
84032;BME280;74113;46.556;24.570;2024-01-07T01:15:01;96757.11;;;6.19;66.57
84032;BME280;74113;46.556;24.570;2024-01-07T01:17:30;96760.07;;;6.19;66.59
84032;BME280;74113;46.556;24.570;2024-01-07T01:19:59;96753.89;;;6.18;66.56
84032;BME280;74113;46.556;24.570;2024-01-07T01:22:27;96748.34;;;6.19;66.61
84032;BME280;74113;46.556;24.570;2024-01-07T01:24:56;96745.77;;;6.19;66.38
84032;BME280;74113;46.556;24.570;2024-01-07T01:27:25;96742.94;;;6.16;66.37
84032;BME280;74113;46.556;24.570;2024-01-07T01:29:53;96745.44;;;6.15;66.34
84032;BME280;74113;46.556;24.570;2024-01-07T01:32:22;96742.72;;;6.14;66.18
84032;BME280;74113;46.556;24.570;2024-01-07T01:34:50;96742.14;;;6.15;66.52
84032;BME280;74113;46.556;24.570;2024-01-07T01:37:19;96738.55;;;6.18;66.19
84032;BME280;74113;46.556;24.570;2024-01-07T01:39:47;96734.07;;;6.22;65.98
84032;BME280;74113;46.556;24.570;2024-01-07T01:42:17;96737.91;;;6.25;66.05
84032;BME280;74113;46.556;24.570;2024-01-07T01:44:46;96735.73;;;6.27;65.88
84032;BME280;74113;46.556;24.570;2024-01-07T01:47:15;96740.04;;;6.27;66.01
84032;BME280;74113;46.556;24.570;2024-01-07T01:49:45;96741.08;;;6.31;66.37
84032;BME280;74113;46.556;24.570;2024-01-07T01:52:14;96735.20;;;6.35;66.71
84032;BME280;74113;46.556;24.570;2024-01-07T01:54:43;96727.95;;;6.39;66.59
84032;BME280;74113;46.556;24.570;2024-01-07T01:57:16;96730.24;;;6.42;66.46
84032;BME280;74113;46.556;24.570;2024-01-07T01:59:45;96732.61;;;6.39;65.76
84032;BME280;74113;46.556;24.570;2024-01-07T02:02:13;96731.13;;;6.34;65.91
84032;BME280;74113;46.556;24.570;2024-01-07T02:04:42;96728.04;;;6.26;66.06
84032;BME280;74113;46.556;24.570;2024-01-07T02:07:11;96725.25;;;6.23;65.88
84032;BME280;74113;46.556;24.570;2024-01-07T02:09:40;96718.73;;;6.18;65.99
84032;BME280;74113;46.556;24.570;2024-01-07T02:12:08;96715.56;;;6.16;66.04
84032;BME280;74113;46.556;24.570;2024-01-07T02:14:40;96708.46;;;6.14;66.12
84032;BME280;74113;46.556;24.570;2024-01-07T02:17:09;96705.58;;;6.09;66.25
84032;BME280;74113;46.556;24.570;2024-01-07T02:19:37;96699.01;;;6.06;66.35
84032;BME280;74113;46.556;24.570;2024-01-07T02:22:06;96691.88;;;6.03;66.58
84032;BME280;74113;46.556;24.570;2024-01-07T02:24:35;96689.75;;;6.01;66.64
84032;BME280;74113;46.556;24.570;2024-01-07T02:27:03;96687.86;;;5.97;66.46
84032;BME280;74113;46.556;24.570;2024-01-07T02:29:32;96685.42;;;5.91;66.65
84032;BME280;74113;46.556;24.570;2024-01-07T02:32:01;96682.48;;;5.83;66.86
84032;BME280;74113;46.556;24.570;2024-01-07T02:34:31;96675.45;;;5.78;66.80
84032;BME280;74113;46.556;24.570;2024-01-07T02:36:59;96670.88;;;5.73;66.92
84032;BME280;74113;46.556;24.570;2024-01-07T02:39:28;96665.98;;;5.67;66.87
84032;BME280;74113;46.556;24.570;2024-01-07T02:41:56;96662.73;;;5.63;67.17
84032;BME280;74113;46.556;24.570;2024-01-07T02:44:24;96660.89;;;5.58;67.41
84032;BME280;74113;46.556;24.570;2024-01-07T02:46:52;96660.02;;;5.54;67.52
84032;BME280;74113;46.556;24.570;2024-01-07T02:49:21;96661.61;;;5.53;67.72
84032;BME280;74113;46.556;24.570;2024-01-07T02:51:49;96658.04;;;5.53;67.86
84032;BME280;74113;46.556;24.570;2024-01-07T02:54:18;96653.33;;;5.50;67.80
84032;BME280;74113;46.556;24.570;2024-01-07T02:56:46;96648.98;;;5.47;67.68
84032;BME280;74113;46.556;24.570;2024-01-07T02:59:15;96649.45;;;5.45;67.52
84032;BME280;74113;46.556;24.570;2024-01-07T03:01:43;96645.50;;;5.41;67.54
84032;BME280;74113;46.556;24.570;2024-01-07T03:04:14;96648.85;;;5.39;67.28
84032;BME280;74113;46.556;24.570;2024-01-07T03:06:43;96653.35;;;5.38;67.74
84032;BME280;74113;46.556;24.570;2024-01-07T03:09:11;96651.11;;;5.34;68.10
84032;BME280;74113;46.556;24.570;2024-01-07T03:11:40;96645.64;;;5.26;68.33
84032;BME280;74113;46.556;24.570;2024-01-07T03:14:12;96654.35;;;5.23;68.34
84032;BME280;74113;46.556;24.570;2024-01-07T03:16:40;96655.77;;;5.22;68.23
84032;BME280;74113;46.556;24.570;2024-01-07T03:19:08;96651.81;;;5.22;68.25
84032;BME280;74113;46.556;24.570;2024-01-07T03:21:37;96649.75;;;5.22;68.31
84032;BME280;74113;46.556;24.570;2024-01-07T03:24:06;96645.79;;;5.22;68.59
84032;BME280;74113;46.556;24.570;2024-01-07T03:26:35;96642.27;;;5.24;69.01
84032;BME280;74113;46.556;24.570;2024-01-07T03:29:04;96635.76;;;5.23;69.10
84032;BME280;74113;46.556;24.570;2024-01-07T03:31:33;96632.79;;;5.24;68.69
84032;BME280;74113;46.556;24.570;2024-01-07T03:34:01;96627.79;;;5.20;68.82
84032;BME280;74113;46.556;24.570;2024-01-07T03:36:30;96627.85;;;5.19;68.91
84032;BME280;74113;46.556;24.570;2024-01-07T03:38:58;96627.10;;;5.17;68.63
84032;BME280;74113;46.556;24.570;2024-01-07T03:41:27;96629.05;;;5.16;68.78
84032;BME280;74113;46.556;24.570;2024-01-07T03:43:55;96625.29;;;5.19;68.36
84032;BME280;74113;46.556;24.570;2024-01-07T03:46:24;96621.79;;;5.24;68.61
84032;BME280;74113;46.556;24.570;2024-01-07T03:48:53;96619.46;;;5.31;68.63
84032;BME280;74113;46.556;24.570;2024-01-07T03:51:21;96618.66;;;5.33;68.35
84032;BME280;74113;46.556;24.570;2024-01-07T03:53:50;96617.55;;;5.35;68.03
84032;BME280;74113;46.556;24.570;2024-01-07T03:56:18;96615.23;;;5.33;67.95
84032;BME280;74113;46.556;24.570;2024-01-07T03:58:47;96616.77;;;5.29;68.39
84032;BME280;74113;46.556;24.570;2024-01-07T04:01:16;96614.25;;;5.24;68.29
84032;BME280;74113;46.556;24.570;2024-01-07T04:03:46;96603.85;;;5.21;68.03
84032;BME280;74113;46.556;24.570;2024-01-07T04:06:15;96600.58;;;5.18;68.45
84032;BME280;74113;46.556;24.570;2024-01-07T04:08:44;96596.80;;;5.18;68.50
84032;BME280;74113;46.556;24.570;2024-01-07T04:11:12;96593.20;;;5.21;68.45
84032;BME280;74113;46.556;24.570;2024-01-07T04:13:41;96593.67;;;5.27;68.33
84032;BME280;74113;46.556;24.570;2024-01-07T04:16:19;96601.23;;;5.31;68.18
84032;BME280;74113;46.556;24.570;2024-01-07T04:18:48;96601.16;;;5.32;67.67
84032;BME280;74113;46.556;24.570;2024-01-07T04:21:21;96601.46;;;5.33;67.67
84032;BME280;74113;46.556;24.570;2024-01-07T04:23:50;96601.27;;;5.34;67.79
84032;BME280;74113;46.556;24.570;2024-01-07T04:26:18;96601.20;;;5.35;67.59
84032;BME280;74113;46.556;24.570;2024-01-07T04:28:46;96597.52;;;5.36;67.37
84032;BME280;74113;46.556;24.570;2024-01-07T04:31:15;96593.09;;;5.36;67.36
84032;BME280;74113;46.556;24.570;2024-01-07T04:33:44;96589.84;;;5.35;67.32
84032;BME280;74113;46.556;24.570;2024-01-07T04:36:13;96587.47;;;5.35;67.31
84032;BME280;74113;46.556;24.570;2024-01-07T04:38:41;96592.89;;;5.33;67.08
84032;BME280;74113;46.556;24.570;2024-01-07T04:41:09;96593.05;;;5.29;67.24
84032;BME280;74113;46.556;24.570;2024-01-07T04:43:38;96597.63;;;5.27;67.46
84032;BME280;74113;46.556;24.570;2024-01-07T04:46:06;96595.12;;;5.29;67.78
84032;BME280;74113;46.556;24.570;2024-01-07T04:48:35;96595.67;;;5.32;67.70
84032;BME280;74113;46.556;24.570;2024-01-07T04:51:04;96595.73;;;5.35;67.50
84032;BME280;74113;46.556;24.570;2024-01-07T04:53:32;96589.36;;;5.39;67.61
84032;BME280;74113;46.556;24.570;2024-01-07T04:56:01;96590.58;;;5.42;67.27
84032;BME280;74113;46.556;24.570;2024-01-07T04:58:29;96588.50;;;5.42;67.41
84032;BME280;74113;46.556;24.570;2024-01-07T05:00:58;96588.84;;;5.39;66.90
84032;BME280;74113;46.556;24.570;2024-01-07T05:03:27;96587.98;;;5.39;67.30
84032;BME280;74113;46.556;24.570;2024-01-07T05:05:56;96583.83;;;5.39;67.00
84032;BME280;74113;46.556;24.570;2024-01-07T05:08:24;96578.75;;;5.41;67.03
84032;BME280;74113;46.556;24.570;2024-01-07T05:10:54;96576.79;;;5.43;67.06
84032;BME280;74113;46.556;24.570;2024-01-07T05:13:23;96576.77;;;5.43;67.14
84032;BME280;74113;46.556;24.570;2024-01-07T05:15:51;96573.04;;;5.42;67.06
84032;BME280;74113;46.556;24.570;2024-01-07T05:18:23;96570.81;;;5.42;66.96
84032;BME280;74113;46.556;24.570;2024-01-07T05:20:52;96572.04;;;5.41;67.37
84032;BME280;74113;46.556;24.570;2024-01-07T05:23:20;96573.91;;;5.41;67.45
84032;BME280;74113;46.556;24.570;2024-01-07T05:25:49;96567.27;;;5.40;66.95
84032;BME280;74113;46.556;24.570;2024-01-07T05:28:17;96569.98;;;5.37;66.88
84032;BME280;74113;46.556;24.570;2024-01-07T05:30:49;96568.77;;;5.38;67.20
84032;BME280;74113;46.556;24.570;2024-01-07T05:33:18;96567.02;;;5.38;67.13
84032;BME280;74113;46.556;24.570;2024-01-07T05:35:46;96563.80;;;5.41;67.03
84032;BME280;74113;46.556;24.570;2024-01-07T05:38:15;96561.42;;;5.44;66.84
84032;BME280;74113;46.556;24.570;2024-01-07T05:40:43;96561.80;;;5.43;66.95
84032;BME280;74113;46.556;24.570;2024-01-07T05:43:12;96561.34;;;5.42;66.68
84032;BME280;74113;46.556;24.570;2024-01-07T05:45:40;96553.16;;;5.40;66.51
84032;BME280;74113;46.556;24.570;2024-01-07T05:48:09;96552.23;;;5.42;66.78
84032;BME280;74113;46.556;24.570;2024-01-07T05:50:38;96547.70;;;5.43;66.99
84032;BME280;74113;46.556;24.570;2024-01-07T05:53:07;96551.40;;;5.45;66.69
84032;BME280;74113;46.556;24.570;2024-01-07T05:55:35;96552.40;;;5.45;66.40
84032;BME280;74113;46.556;24.570;2024-01-07T05:58:04;96550.22;;;5.44;66.40
84032;BME280;74113;46.556;24.570;2024-01-07T06:00:33;96548.83;;;5.45;66.82
84032;BME280;74113;46.556;24.570;2024-01-07T06:03:01;96549.30;;;5.46;66.47
84032;BME280;74113;46.556;24.570;2024-01-07T06:05:30;96554.96;;;5.46;66.34
84032;BME280;74113;46.556;24.570;2024-01-07T06:07:59;96555.98;;;5.46;66.45
84032;BME280;74113;46.556;24.570;2024-01-07T06:10:28;96555.27;;;5.47;66.32
84032;BME280;74113;46.556;24.570;2024-01-07T06:12:57;96553.20;;;5.47;66.32
84032;BME280;74113;46.556;24.570;2024-01-07T06:15:25;96549.30;;;5.46;66.24
84032;BME280;74113;46.556;24.570;2024-01-07T06:17:54;96546.89;;;5.42;66.22
84032;BME280;74113;46.556;24.570;2024-01-07T06:20:23;96551.23;;;5.37;66.52
84032;BME280;74113;46.556;24.570;2024-01-07T06:22:52;96551.70;;;5.34;66.62
84032;BME280;74113;46.556;24.570;2024-01-07T06:25:21;96549.09;;;5.35;66.54
84032;BME280;74113;46.556;24.570;2024-01-07T06:27:51;96544.58;;;5.36;66.80
84032;BME280;74113;46.556;24.570;2024-01-07T06:30:20;96544.06;;;5.36;66.52
84032;BME280;74113;46.556;24.570;2024-01-07T06:32:49;96542.89;;;5.36;66.85
84032;BME280;74113;46.556;24.570;2024-01-07T06:35:17;96540.11;;;5.32;66.72
84032;BME280;74113;46.556;24.570;2024-01-07T06:37:46;96538.89;;;5.33;66.68
84032;BME280;74113;46.556;24.570;2024-01-07T06:40:14;96537.39;;;5.32;66.56
84032;BME280;74113;46.556;24.570;2024-01-07T06:42:43;96536.77;;;5.30;66.91
84032;BME280;74113;46.556;24.570;2024-01-07T06:45:13;96536.63;;;5.26;66.81
84032;BME280;74113;46.556;24.570;2024-01-07T06:47:42;96534.90;;;5.22;67.03
84032;BME280;74113;46.556;24.570;2024-01-07T06:50:11;96536.00;;;5.20;67.24
84032;BME280;74113;46.556;24.570;2024-01-07T06:52:39;96533.67;;;5.22;67.21
84032;BME280;74113;46.556;24.570;2024-01-07T06:55:08;96531.48;;;5.26;67.29
84032;BME280;74113;46.556;24.570;2024-01-07T06:57:37;96533.14;;;5.27;66.68
84032;BME280;74113;46.556;24.570;2024-01-07T07:00:06;96533.36;;;5.30;66.63
84032;BME280;74113;46.556;24.570;2024-01-07T07:02:36;96524.95;;;5.33;66.89
84032;BME280;74113;46.556;24.570;2024-01-07T07:05:05;96525.73;;;5.35;66.45
84032;BME280;74113;46.556;24.570;2024-01-07T07:07:34;96523.70;;;5.38;66.40
84032;BME280;74113;46.556;24.570;2024-01-07T07:10:03;96523.20;;;5.41;66.11
84032;BME280;74113;46.556;24.570;2024-01-07T07:12:32;96523.51;;;5.42;66.24
84032;BME280;74113;46.556;24.570;2024-01-07T07:15:00;96525.89;;;5.43;66.00
84032;BME280;74113;46.556;24.570;2024-01-07T07:17:29;96518.98;;;5.43;66.02
84032;BME280;74113;46.556;24.570;2024-01-07T07:19:58;96518.25;;;5.48;65.83
84032;BME280;74113;46.556;24.570;2024-01-07T07:22:27;96512.95;;;5.54;65.79
84032;BME280;74113;46.556;24.570;2024-01-07T07:24:55;96508.63;;;5.62;65.26
84032;BME280;74113;46.556;24.570;2024-01-07T07:27:28;96505.46;;;5.63;65.03
84032;BME280;74113;46.556;24.570;2024-01-07T07:29:57;96502.36;;;5.63;65.02
84032;BME280;74113;46.556;24.570;2024-01-07T07:32:26;96504.95;;;5.63;64.96
84032;BME280;74113;46.556;24.570;2024-01-07T07:34:54;96500.35;;;5.66;64.75
84032;BME280;74113;46.556;24.570;2024-01-07T07:37:23;96498.29;;;5.69;64.77
84032;BME280;74113;46.556;24.570;2024-01-07T07:39:53;96496.53;;;5.73;64.67
84032;BME280;74113;46.556;24.570;2024-01-07T07:42:22;96498.73;;;5.74;64.38
84032;BME280;74113;46.556;24.570;2024-01-07T07:44:51;96495.20;;;5.76;64.20
84032;BME280;74113;46.556;24.570;2024-01-07T07:47:19;96497.45;;;5.80;64.13
84032;BME280;74113;46.556;24.570;2024-01-07T07:49:49;96493.46;;;5.84;63.76
84032;BME280;74113;46.556;24.570;2024-01-07T07:52:18;96481.85;;;5.90;63.81
84032;BME280;74113;46.556;24.570;2024-01-07T07:54:50;96478.03;;;5.97;63.39
84032;BME280;74113;46.556;24.570;2024-01-07T07:57:19;96477.90;;;6.07;63.37
84032;BME280;74113;46.556;24.570;2024-01-07T07:59:48;96478.87;;;6.15;62.94
84032;BME280;74113;46.556;24.570;2024-01-07T08:02:17;96476.26;;;6.22;62.47
84032;BME280;74113;46.556;24.570;2024-01-07T08:04:47;96475.27;;;6.29;62.59
84032;BME280;74113;46.556;24.570;2024-01-07T08:07:15;96477.89;;;6.35;62.47
84032;BME280;74113;46.556;24.570;2024-01-07T08:09:44;96471.89;;;6.41;62.02
84032;BME280;74113;46.556;24.570;2024-01-07T08:12:13;96469.57;;;6.46;61.90
84032;BME280;74113;46.556;24.570;2024-01-07T08:14:41;96468.50;;;6.50;61.86
84032;BME280;74113;46.556;24.570;2024-01-07T08:17:10;96469.10;;;6.55;61.70
84032;BME280;74113;46.556;24.570;2024-01-07T08:19:39;96465.58;;;6.59;61.47
84032;BME280;74113;46.556;24.570;2024-01-07T08:22:07;96463.56;;;6.65;61.84
84032;BME280;74113;46.556;24.570;2024-01-07T08:24:38;96460.77;;;6.72;62.14
84032;BME280;74113;46.556;24.570;2024-01-07T08:27:07;96461.27;;;6.79;61.60
84032;BME280;74113;46.556;24.570;2024-01-07T08:29:36;96463.34;;;6.86;61.23
84032;BME280;74113;46.556;24.570;2024-01-07T08:32:05;96462.48;;;6.92;60.97
84032;BME280;74113;46.556;24.570;2024-01-07T08:34:34;96459.94;;;7.01;60.67
84032;BME280;74113;46.556;24.570;2024-01-07T08:37:03;96453.77;;;7.09;60.63
84032;BME280;74113;46.556;24.570;2024-01-07T08:39:32;96451.88;;;7.19;60.33
84032;BME280;74113;46.556;24.570;2024-01-07T08:42:00;96453.52;;;7.30;60.31
84032;BME280;74113;46.556;24.570;2024-01-07T08:44:30;96449.73;;;7.40;59.96
84032;BME280;74113;46.556;24.570;2024-01-07T08:46:58;96452.15;;;7.49;60.07
84032;BME280;74113;46.556;24.570;2024-01-07T08:49:29;96448.50;;;7.55;60.16
84032;BME280;74113;46.556;24.570;2024-01-07T08:51:58;96445.70;;;7.62;59.99
84032;BME280;74113;46.556;24.570;2024-01-07T08:54:27;96437.86;;;7.69;59.85
84032;BME280;74113;46.556;24.570;2024-01-07T08:56:55;96433.17;;;7.76;59.40
84032;BME280;74113;46.556;24.570;2024-01-07T08:59:24;96424.42;;;7.81;59.53
84032;BME280;74113;46.556;24.570;2024-01-07T09:01:52;96423.35;;;7.87;59.75
84032;BME280;74113;46.556;24.570;2024-01-07T09:04:21;96420.36;;;7.95;59.11
84032;BME280;74113;46.556;24.570;2024-01-07T09:06:50;96415.68;;;8.01;59.15
84032;BME280;74113;46.556;24.570;2024-01-07T09:09:19;96413.02;;;8.08;59.28
84032;BME280;74113;46.556;24.570;2024-01-07T09:11:47;96412.98;;;8.14;58.97
84032;BME280;74113;46.556;24.570;2024-01-07T09:14:16;96411.24;;;8.20;59.17
84032;BME280;74113;46.556;24.570;2024-01-07T09:16:45;96406.73;;;8.26;58.98
84032;BME280;74113;46.556;24.570;2024-01-07T09:19:14;96405.19;;;8.32;58.72
84032;BME280;74113;46.556;24.570;2024-01-07T09:21:43;96403.75;;;8.40;58.49
84032;BME280;74113;46.556;24.570;2024-01-07T09:24:12;96403.15;;;8.46;58.36
84032;BME280;74113;46.556;24.570;2024-01-07T09:26:41;96400.13;;;8.54;57.92
84032;BME280;74113;46.556;24.570;2024-01-07T09:29:10;96397.35;;;8.59;58.31
84032;BME280;74113;46.556;24.570;2024-01-07T09:31:38;96394.40;;;8.65;58.52
84032;BME280;74113;46.556;24.570;2024-01-07T09:34:07;96394.20;;;8.71;58.38
84032;BME280;74113;46.556;24.570;2024-01-07T09:36:36;96387.17;;;8.79;57.85
84032;BME280;74113;46.556;24.570;2024-01-07T09:39:05;96384.48;;;8.86;58.06
84032;BME280;74113;46.556;24.570;2024-01-07T09:41:34;96383.16;;;8.96;57.82
84032;BME280;74113;46.556;24.570;2024-01-07T09:44:03;96383.26;;;9.08;56.83
84032;BME280;74113;46.556;24.570;2024-01-07T09:46:34;96378.65;;;9.20;57.08
84032;BME280;74113;46.556;24.570;2024-01-07T09:49:05;96373.79;;;9.37;57.13
84032;BME280;74113;46.556;24.570;2024-01-07T09:51:35;96372.63;;;9.76;55.23
84032;BME280;74113;46.556;24.570;2024-01-07T09:54:08;96366.00;;;10.13;55.17
84032;BME280;74113;46.556;24.570;2024-01-07T09:56:46;96360.27;;;10.13;54.85
84032;BME280;74113;46.556;24.570;2024-01-07T09:59:17;96356.44;;;10.11;54.66
84032;BME280;74113;46.556;24.570;2024-01-07T10:01:46;96351.38;;;10.11;54.93
84032;BME280;74113;46.556;24.570;2024-01-07T10:04:17;96350.52;;;10.14;54.24
84032;BME280;74113;46.556;24.570;2024-01-07T10:06:45;96347.40;;;10.19;54.83
84032;BME280;74113;46.556;24.570;2024-01-07T10:09:15;96344.00;;;10.26;54.01
84032;BME280;74113;46.556;24.570;2024-01-07T10:11:44;96342.25;;;10.33;54.50
84032;BME280;74113;46.556;24.570;2024-01-07T10:14:13;96344.02;;;10.41;54.44
84032;BME280;74113;46.556;24.570;2024-01-07T10:16:41;96335.23;;;10.48;54.29
84032;BME280;74113;46.556;24.570;2024-01-07T10:19:10;96333.34;;;10.53;54.27
84032;BME280;74113;46.556;24.570;2024-01-07T10:21:39;96331.54;;;10.58;52.69
84032;BME280;74113;46.556;24.570;2024-01-07T10:24:12;96324.51;;;10.64;53.06
84032;BME280;74113;46.556;24.570;2024-01-07T10:26:41;96321.00;;;10.75;52.29
84032;BME280;74113;46.556;24.570;2024-01-07T10:29:10;96319.20;;;10.83;52.53
84032;BME280;74113;46.556;24.570;2024-01-07T10:31:39;96313.20;;;10.94;52.87
84032;BME280;74113;46.556;24.570;2024-01-07T10:34:11;96307.70;;;11.03;51.43
84032;BME280;74113;46.556;24.570;2024-01-07T10:36:42;96302.82;;;11.08;52.04
84032;BME280;74113;46.556;24.570;2024-01-07T10:39:12;96297.52;;;11.21;51.97
84032;BME280;74113;46.556;24.570;2024-01-07T10:41:45;96299.14;;;11.32;51.31
84032;BME280;74113;46.556;24.570;2024-01-07T10:44:14;96294.63;;;11.41;51.25
84032;BME280;74113;46.556;24.570;2024-01-07T10:46:46;96294.98;;;11.49;51.38
84032;BME280;74113;46.556;24.570;2024-01-07T10:49:23;96292.52;;;11.52;50.86
84032;BME280;74113;46.556;24.570;2024-01-07T10:52:02;96285.53;;;11.54;50.48
84032;BME280;74113;46.556;24.570;2024-01-07T10:54:35;96280.71;;;11.56;51.99
84032;BME280;74113;46.556;24.570;2024-01-07T10:59:47;96275.79;;;11.62;52.76
84032;BME280;74113;46.556;24.570;2024-01-07T11:02:19;96271.05;;;11.62;52.84
84032;BME280;74113;46.556;24.570;2024-01-07T11:05:17;96271.92;;;11.64;52.47
84032;BME280;74113;46.556;24.570;2024-01-07T11:08:05;96268.06;;;11.67;52.99
84032;BME280;74113;46.556;24.570;2024-01-07T11:10:51;96263.41;;;11.69;52.67
84032;BME280;74113;46.556;24.570;2024-01-07T11:13:34;96262.99;;;11.79;52.39
84032;BME280;74113;46.556;24.570;2024-01-07T11:16:07;96261.83;;;11.90;51.28
84032;BME280;74113;46.556;24.570;2024-01-07T11:18:45;96261.54;;;11.98;49.60
84032;BME280;74113;46.556;24.570;2024-01-07T11:21:24;96263.67;;;12.09;47.31
84032;BME280;74113;46.556;24.570;2024-01-07T11:23:55;96262.36;;;12.24;46.04
84032;BME280;74113;46.556;24.570;2024-01-07T11:26:28;96260.61;;;12.35;45.54
84032;BME280;74113;46.556;24.570;2024-01-07T11:28:58;96257.01;;;12.45;45.04
84032;BME280;74113;46.556;24.570;2024-01-07T11:31:45;96257.23;;;12.52;44.54
84032;BME280;74113;46.556;24.570;2024-01-07T11:34:38;96252.73;;;12.58;44.47
84032;BME280;74113;46.556;24.570;2024-01-07T11:37:10;96250.84;;;12.64;44.21
84032;BME280;74113;46.556;24.570;2024-01-07T11:39:46;96248.03;;;12.69;44.97
84032;BME280;74113;46.556;24.570;2024-01-07T11:42:16;96247.48;;;12.71;44.92
84032;BME280;74113;46.556;24.570;2024-01-07T11:44:47;96244.16;;;12.72;44.76
84032;BME280;74113;46.556;24.570;2024-01-07T11:47:17;96241.85;;;12.70;44.86
84032;BME280;74113;46.556;24.570;2024-01-07T11:49:46;96246.35;;;12.70;45.64
84032;BME280;74113;46.556;24.570;2024-01-07T11:52:15;96248.73;;;12.71;45.54
84032;BME280;74113;46.556;24.570;2024-01-07T11:54:44;96245.95;;;12.71;44.90
84032;BME280;74113;46.556;24.570;2024-01-07T11:57:13;96243.98;;;12.72;44.99
84032;BME280;74113;46.556;24.570;2024-01-07T11:59:42;96246.58;;;12.72;45.60
84032;BME280;74113;46.556;24.570;2024-01-07T12:02:12;96246.55;;;12.70;45.87
84032;BME280;74113;46.556;24.570;2024-01-07T12:04:42;96246.17;;;12.70;46.30
84032;BME280;74113;46.556;24.570;2024-01-07T12:07:11;96245.29;;;12.70;46.20
84032;BME280;74113;46.556;24.570;2024-01-07T12:09:43;96248.23;;;12.73;45.92
84032;BME280;74113;46.556;24.570;2024-01-07T12:12:12;96243.80;;;12.76;45.89
84032;BME280;74113;46.556;24.570;2024-01-07T12:14:40;96249.48;;;12.83;45.62
84032;BME280;74113;46.556;24.570;2024-01-07T12:17:09;96250.39;;;12.83;46.22
84032;BME280;74113;46.556;24.570;2024-01-07T12:19:41;96252.44;;;12.79;46.28
84032;BME280;74113;46.556;24.570;2024-01-07T12:22:10;96253.13;;;12.75;46.09
84032;BME280;74113;46.556;24.570;2024-01-07T12:24:38;96255.65;;;12.71;46.48
84032;BME280;74113;46.556;24.570;2024-01-07T12:27:07;96255.09;;;12.68;45.87
84032;BME280;74113;46.556;24.570;2024-01-07T12:29:35;96254.23;;;12.63;46.01
84032;BME280;74113;46.556;24.570;2024-01-07T12:32:05;96256.00;;;12.56;46.63
84032;BME280;74113;46.556;24.570;2024-01-07T12:34:34;96258.89;;;12.50;47.03
84032;BME280;74113;46.556;24.570;2024-01-07T12:37:03;96261.64;;;12.46;47.32
84032;BME280;74113;46.556;24.570;2024-01-07T12:39:31;96267.88;;;12.42;46.66
84032;BME280;74113;46.556;24.570;2024-01-07T12:42:00;96270.56;;;12.36;46.52
84032;BME280;74113;46.556;24.570;2024-01-07T12:44:28;96270.30;;;12.29;46.60
84032;BME280;74113;46.556;24.570;2024-01-07T12:46:56;96273.48;;;12.24;47.10
84032;BME280;74113;46.556;24.570;2024-01-07T12:49:25;96272.11;;;12.19;47.30
84032;BME280;74113;46.556;24.570;2024-01-07T12:51:54;96276.77;;;12.13;47.22
84032;BME280;74113;46.556;24.570;2024-01-07T12:54:22;96282.52;;;12.06;47.45
84032;BME280;74113;46.556;24.570;2024-01-07T12:56:52;96287.96;;;11.96;47.94
84032;BME280;74113;46.556;24.570;2024-01-07T12:59:21;96287.21;;;11.83;48.50
84032;BME280;74113;46.556;24.570;2024-01-07T13:01:50;96289.72;;;11.68;49.35
84032;BME280;74113;46.556;24.570;2024-01-07T13:04:20;96295.86;;;11.53;50.89
84032;BME280;74113;46.556;24.570;2024-01-07T13:06:48;96299.17;;;11.34;52.60
84032;BME280;74113;46.556;24.570;2024-01-07T13:09:18;96305.91;;;11.11;54.33
84032;BME280;74113;46.556;24.570;2024-01-07T13:11:46;96307.64;;;10.91;55.22